Aviation Digital Data Service (ADDS)

Output produced by METARs form (1702 UTC 20 November 2017)
found at http://aviationweather.gov/adds/metars/
 
KYNG 201120Z 2012/2112 23010KT P6SM SCT035 BKN120 
     FM201400 23010KT P6SM FEW035 SCT250 
     FM202200 20012G20KT P6SM SCT250